sensor_id;sensor_type;location;lat;lon;timestamp;pressure;altitude;pressure_sealevel;temperature;humidity
65880;BME280;52661;51.364;6.054;2022-07-04T00:01:57;101722.31;;;17.94;59.93
65880;BME280;52661;51.364;6.054;2022-07-04T00:04:23;101717.03;;;17.80;60.47
65880;BME280;52661;51.364;6.054;2022-07-04T00:06:48;101721.59;;;17.90;60.12
65880;BME280;52661;51.364;6.054;2022-07-04T00:09:13;101726.91;;;17.74;60.75
65880;BME280;52661;51.364;6.054;2022-07-04T00:11:39;101723.59;;;17.55;61.22
65880;BME280;52661;51.364;6.054;2022-07-04T00:14:04;101720.63;;;17.73;60.87
65880;BME280;52661;51.364;6.054;2022-07-04T00:16:30;101722.44;;;17.53;61.12
65880;BME280;52661;51.364;6.054;2022-07-04T00:18:55;101719.31;;;17.51;61.47
65880;BME280;52661;51.364;6.054;2022-07-04T00:21:20;101713.47;;;17.49;61.59
65880;BME280;52661;51.364;6.054;2022-07-04T00:23:46;101715.38;;;17.52;61.68
65880;BME280;52661;51.364;6.054;2022-07-04T00:26:11;101716.06;;;17.63;61.41
65880;BME280;52661;51.364;6.054;2022-07-04T00:28:36;101719.19;;;17.65;61.31
65880;BME280;52661;51.364;6.054;2022-07-04T00:31:02;101720.59;;;17.77;60.90
65880;BME280;52661;51.364;6.054;2022-07-04T00:33:27;101720.22;;;17.75;60.77
65880;BME280;52661;51.364;6.054;2022-07-04T00:35:52;101716.75;;;17.37;62.15
65880;BME280;52661;51.364;6.054;2022-07-04T00:38:18;101712.72;;;17.14;63.02
65880;BME280;52661;51.364;6.054;2022-07-04T00:40:43;101712.16;;;17.27;62.47
65880;BME280;52661;51.364;6.054;2022-07-04T00:43:08;101720.44;;;17.23;62.56
65880;BME280;52661;51.364;6.054;2022-07-04T00:45:34;101713.59;;;17.04;63.37
65880;BME280;52661;51.364;6.054;2022-07-04T00:47:59;101702.47;;;17.18;63.06
65880;BME280;52661;51.364;6.054;2022-07-04T00:50:25;101708.69;;;17.22;63.04
65880;BME280;52661;51.364;6.054;2022-07-04T00:52:51;101706.63;;;17.30;62.89
65880;BME280;52661;51.364;6.054;2022-07-04T00:55:17;101698.44;;;17.27;62.74
65880;BME280;52661;51.364;6.054;2022-07-04T00:57:43;101703.50;;;17.32;62.88
65880;BME280;52661;51.364;6.054;2022-07-04T01:00:08;101700.13;;;17.17;63.04
65880;BME280;52661;51.364;6.054;2022-07-04T01:02:34;101707.50;;;16.86;64.06
65880;BME280;52661;51.364;6.054;2022-07-04T01:04:59;101709.22;;;16.73;64.57
65880;BME280;52661;51.364;6.054;2022-07-04T01:07:24;101704.94;;;16.68;64.35
65880;BME280;52661;51.364;6.054;2022-07-04T01:09:50;101703.41;;;16.67;64.83
65880;BME280;52661;51.364;6.054;2022-07-04T01:12:28;101708.63;;;16.48;65.63
65880;BME280;52661;51.364;6.054;2022-07-04T01:14:54;101697.66;;;16.48;65.65
65880;BME280;52661;51.364;6.054;2022-07-04T01:17:19;101701.63;;;16.43;65.83
65880;BME280;52661;51.364;6.054;2022-07-04T01:19:45;101699.28;;;16.42;65.90
65880;BME280;52661;51.364;6.054;2022-07-04T01:22:10;101689.75;;;16.60;65.18
65880;BME280;52661;51.364;6.054;2022-07-04T01:24:36;101695.78;;;16.82;64.43
65880;BME280;52661;51.364;6.054;2022-07-04T01:27:01;101698.88;;;16.88;63.91
65880;BME280;52661;51.364;6.054;2022-07-04T01:29:27;101690.78;;;16.77;64.81
65880;BME280;52661;51.364;6.054;2022-07-04T01:31:52;101697.16;;;16.67;64.99
65880;BME280;52661;51.364;6.054;2022-07-04T01:34:19;101700.66;;;16.64;65.67
65880;BME280;52661;51.364;6.054;2022-07-04T01:36:46;101689.09;;;16.46;65.96
65880;BME280;52661;51.364;6.054;2022-07-04T01:39:11;101687.34;;;16.66;64.97
65880;BME280;52661;51.364;6.054;2022-07-04T01:41:36;101676.69;;;16.75;64.32
65880;BME280;52661;51.364;6.054;2022-07-04T01:44:02;101673.50;;;16.80;63.83
65880;BME280;52661;51.364;6.054;2022-07-04T01:46:28;101673.97;;;16.71;64.32
65880;BME280;52661;51.364;6.054;2022-07-04T01:48:53;101677.31;;;16.49;64.61
65880;BME280;52661;51.364;6.054;2022-07-04T01:51:18;101671.53;;;16.36;64.78
65880;BME280;52661;51.364;6.054;2022-07-04T01:53:43;101671.78;;;16.52;64.28
65880;BME280;52661;51.364;6.054;2022-07-04T01:56:09;101665.09;;;16.12;65.56
65880;BME280;52661;51.364;6.054;2022-07-04T01:58:34;101659.78;;;15.91;66.59
65880;BME280;52661;51.364;6.054;2022-07-04T02:01:00;101663.28;;;15.88;66.65
65880;BME280;52661;51.364;6.054;2022-07-04T02:03:44;101662.56;;;15.84;67.34
65880;BME280;52661;51.364;6.054;2022-07-04T02:06:11;101669.19;;;15.83;67.49
65880;BME280;52661;51.364;6.054;2022-07-04T02:08:36;101662.13;;;15.89;67.27
65880;BME280;52661;51.364;6.054;2022-07-04T02:11:20;101663.78;;;15.72;67.47
65880;BME280;52661;51.364;6.054;2022-07-04T02:13:45;101670.00;;;15.80;67.14
65880;BME280;52661;51.364;6.054;2022-07-04T02:16:10;101668.72;;;15.95;66.87
65880;BME280;52661;51.364;6.054;2022-07-04T02:18:36;101667.53;;;15.96;66.93
65880;BME280;52661;51.364;6.054;2022-07-04T02:21:01;101668.03;;;15.84;67.06
65880;BME280;52661;51.364;6.054;2022-07-04T02:23:26;101671.91;;;15.90;67.17
65880;BME280;52661;51.364;6.054;2022-07-04T02:25:52;101674.31;;;15.77;67.54
65880;BME280;52661;51.364;6.054;2022-07-04T02:28:17;101679.88;;;15.63;68.12
65880;BME280;52661;51.364;6.054;2022-07-04T02:30:43;101685.75;;;15.62;68.30
65880;BME280;52661;51.364;6.054;2022-07-04T02:33:08;101689.28;;;15.48;68.65
65880;BME280;52661;51.364;6.054;2022-07-04T02:35:34;101688.13;;;15.46;68.76
65880;BME280;52661;51.364;6.054;2022-07-04T02:37:59;101692.44;;;15.47;68.95
65880;BME280;52661;51.364;6.054;2022-07-04T02:40:24;101698.75;;;15.37;69.26
65880;BME280;52661;51.364;6.054;2022-07-04T02:42:50;101700.25;;;15.59;68.20
65880;BME280;52661;51.364;6.054;2022-07-04T02:45:15;101695.84;;;15.72;67.93
65880;BME280;52661;51.364;6.054;2022-07-04T02:47:40;101700.06;;;15.91;66.96
65880;BME280;52661;51.364;6.054;2022-07-04T02:50:06;101705.59;;;15.80;66.99
65880;BME280;52661;51.364;6.054;2022-07-04T02:52:31;101695.19;;;15.50;68.38
65880;BME280;52661;51.364;6.054;2022-07-04T02:54:57;101703.84;;;15.27;69.38
65880;BME280;52661;51.364;6.054;2022-07-04T02:57:22;101700.78;;;15.11;69.98
65880;BME280;52661;51.364;6.054;2022-07-04T02:59:47;101705.44;;;15.18;70.21
65880;BME280;52661;51.364;6.054;2022-07-04T03:02:13;101714.44;;;15.15;70.04
65880;BME280;52661;51.364;6.054;2022-07-04T03:04:38;101715.22;;;15.01;70.52
65880;BME280;52661;51.364;6.054;2022-07-04T03:07:06;101719.19;;;14.97;70.95
65880;BME280;52661;51.364;6.054;2022-07-04T03:09:32;101718.78;;;14.88;71.34
65880;BME280;52661;51.364;6.054;2022-07-04T03:11:58;101725.44;;;14.69;72.19
65880;BME280;52661;51.364;6.054;2022-07-04T03:14:23;101725.44;;;14.62;73.03
65880;BME280;52661;51.364;6.054;2022-07-04T03:16:48;101729.75;;;14.45;73.79
65880;BME280;52661;51.364;6.054;2022-07-04T03:19:14;101732.09;;;14.54;73.64
65880;BME280;52661;51.364;6.054;2022-07-04T03:21:39;101739.06;;;14.19;75.08
65880;BME280;52661;51.364;6.054;2022-07-04T03:24:04;101734.78;;;14.29;75.10
65880;BME280;52661;51.364;6.054;2022-07-04T03:26:32;101728.91;;;14.16;75.46
65880;BME280;52661;51.364;6.054;2022-07-04T03:28:58;101736.38;;;14.37;74.62
65880;BME280;52661;51.364;6.054;2022-07-04T03:31:25;101741.47;;;14.39;74.70
65880;BME280;52661;51.364;6.054;2022-07-04T03:33:53;101737.50;;;14.29;74.88
65880;BME280;52661;51.364;6.054;2022-07-04T03:36:19;101743.03;;;14.43;74.10
65880;BME280;52661;51.364;6.054;2022-07-04T03:38:45;101734.03;;;14.36;74.55
65880;BME280;52661;51.364;6.054;2022-07-04T03:41:11;101748.44;;;14.32;74.95
65880;BME280;52661;51.364;6.054;2022-07-04T03:43:36;101741.84;;;14.44;74.46
65880;BME280;52661;51.364;6.054;2022-07-04T03:46:02;101740.69;;;14.56;74.21
65880;BME280;52661;51.364;6.054;2022-07-04T03:48:27;101744.97;;;14.39;74.80
65880;BME280;52661;51.364;6.054;2022-07-04T03:50:52;101751.56;;;14.31;75.34
65880;BME280;52661;51.364;6.054;2022-07-04T03:53:18;101754.31;;;14.38;75.19
65880;BME280;52661;51.364;6.054;2022-07-04T03:55:45;101760.16;;;14.40;74.84
65880;BME280;52661;51.364;6.054;2022-07-04T03:58:11;101760.59;;;14.42;75.12
65880;BME280;52661;51.364;6.054;2022-07-04T04:00:36;101755.91;;;14.53;74.91
65880;BME280;52661;51.364;6.054;2022-07-04T04:03:01;101748.50;;;14.71;74.40
65880;BME280;52661;51.364;6.054;2022-07-04T04:05:27;101739.91;;;14.59;74.73
65880;BME280;52661;51.364;6.054;2022-07-04T04:08:00;101743.81;;;14.72;74.49
65880;BME280;52661;51.364;6.054;2022-07-04T04:10:29;101739.09;;;14.65;74.89
65880;BME280;52661;51.364;6.054;2022-07-04T04:12:54;101733.25;;;14.77;74.37
65880;BME280;52661;51.364;6.054;2022-07-04T04:15:20;101739.09;;;14.83;74.53
65880;BME280;52661;51.364;6.054;2022-07-04T04:17:45;101752.31;;;15.13;73.27
65880;BME280;52661;51.364;6.054;2022-07-04T04:20:11;101757.44;;;14.93;74.01
65880;BME280;52661;51.364;6.054;2022-07-04T04:22:36;101755.50;;;15.01;74.01
65880;BME280;52661;51.364;6.054;2022-07-04T04:25:02;101758.59;;;15.06;74.14
65880;BME280;52661;51.364;6.054;2022-07-04T04:27:27;101760.53;;;15.09;74.31
65880;BME280;52661;51.364;6.054;2022-07-04T04:29:53;101757.41;;;15.21;74.11
65880;BME280;52661;51.364;6.054;2022-07-04T04:32:18;101774.22;;;15.09;74.93
65880;BME280;52661;51.364;6.054;2022-07-04T04:34:44;101775.75;;;15.17;74.82
65880;BME280;52661;51.364;6.054;2022-07-04T04:37:09;101775.38;;;15.22;74.77
65880;BME280;52661;51.364;6.054;2022-07-04T04:39:35;101777.34;;;15.08;75.62
65880;BME280;52661;51.364;6.054;2022-07-04T04:42:00;101789.47;;;15.03;75.62
65880;BME280;52661;51.364;6.054;2022-07-04T04:44:25;101783.94;;;15.32;74.68
65880;BME280;52661;51.364;6.054;2022-07-04T04:46:51;101781.19;;;15.35;74.49
65880;BME280;52661;51.364;6.054;2022-07-04T04:49:16;101800.72;;;15.44;74.38
65880;BME280;52661;51.364;6.054;2022-07-04T04:51:42;101793.69;;;15.40;74.67
65880;BME280;52661;51.364;6.054;2022-07-04T04:54:08;101793.28;;;15.59;74.16
65880;BME280;52661;51.364;6.054;2022-07-04T04:56:33;101786.19;;;15.68;73.71
65880;BME280;52661;51.364;6.054;2022-07-04T04:58:58;101787.78;;;15.62;73.90
65880;BME280;52661;51.364;6.054;2022-07-04T05:01:24;101783.09;;;15.59;74.03
65880;BME280;52661;51.364;6.054;2022-07-04T05:03:49;101782.34;;;15.55;74.16
65880;BME280;52661;51.364;6.054;2022-07-04T05:06:14;101793.28;;;15.62;74.04
65880;BME280;52661;51.364;6.054;2022-07-04T05:08:40;101783.53;;;15.44;74.23
65880;BME280;52661;51.364;6.054;2022-07-04T05:11:05;101781.06;;;15.74;73.99
65880;BME280;52661;51.364;6.054;2022-07-04T05:13:31;101786.53;;;15.81;74.12
65880;BME280;52661;51.364;6.054;2022-07-04T05:15:57;101785.31;;;15.89;73.64
65880;BME280;52661;51.364;6.054;2022-07-04T05:18:22;101784.16;;;15.90;73.63
65880;BME280;52661;51.364;6.054;2022-07-04T05:20:47;101786.47;;;15.92;73.45
65880;BME280;52661;51.364;6.054;2022-07-04T05:23:13;101792.31;;;16.01;73.38
65880;BME280;52661;51.364;6.054;2022-07-04T05:25:38;101790.69;;;16.07;73.45
65880;BME280;52661;51.364;6.054;2022-07-04T05:28:03;101792.66;;;16.06;73.46
65880;BME280;52661;51.364;6.054;2022-07-04T05:30:29;101793.81;;;16.12;73.17
65880;BME280;52661;51.364;6.054;2022-07-04T05:32:54;101786.38;;;16.13;72.95
65880;BME280;52661;51.364;6.054;2022-07-04T05:35:19;101793.06;;;16.05;72.96
65880;BME280;52661;51.364;6.054;2022-07-04T05:37:45;101793.06;;;16.08;73.08
65880;BME280;52661;51.364;6.054;2022-07-04T05:40:11;101790.63;;;16.17;72.79
65880;BME280;52661;51.364;6.054;2022-07-04T05:42:36;101786.78;;;16.11;72.78
65880;BME280;52661;51.364;6.054;2022-07-04T05:45:02;101782.81;;;16.19;72.72
65880;BME280;52661;51.364;6.054;2022-07-04T05:47:28;101787.03;;;16.35;72.18
65880;BME280;52661;51.364;6.054;2022-07-04T05:49:53;101778.09;;;16.23;72.48
65880;BME280;52661;51.364;6.054;2022-07-04T05:52:18;101781.56;;;16.31;72.29
65880;BME280;52661;51.364;6.054;2022-07-04T05:54:44;101779.53;;;16.39;72.08
65880;BME280;52661;51.364;6.054;2022-07-04T05:57:09;101778.34;;;16.43;71.44
65880;BME280;52661;51.364;6.054;2022-07-04T05:59:34;101771.31;;;16.39;71.32
65880;BME280;52661;51.364;6.054;2022-07-04T06:02:00;101768.88;;;16.51;71.00
65880;BME280;52661;51.364;6.054;2022-07-04T06:04:25;101772.72;;;16.64;71.16
65880;BME280;52661;51.364;6.054;2022-07-04T06:06:51;101774.31;;;16.62;70.88
65880;BME280;52661;51.364;6.054;2022-07-04T06:09:16;101775.03;;;16.69;71.24
65880;BME280;52661;51.364;6.054;2022-07-04T06:11:41;101774.97;;;16.77;70.80
65880;BME280;52661;51.364;6.054;2022-07-04T06:14:07;101773.41;;;16.76;70.55
65880;BME280;52661;51.364;6.054;2022-07-04T06:16:32;101771.47;;;16.76;70.70
65880;BME280;52661;51.364;6.054;2022-07-04T06:18:57;101767.06;;;16.86;70.31
65880;BME280;52661;51.364;6.054;2022-07-04T06:21:22;101774.31;;;17.06;70.17
65880;BME280;52661;51.364;6.054;2022-07-04T06:23:48;101765.66;;;17.08;69.60
65880;BME280;52661;51.364;6.054;2022-07-04T06:26:13;101781.22;;;17.21;69.61
65880;BME280;52661;51.364;6.054;2022-07-04T06:28:38;101778.44;;;17.25;70.06
65880;BME280;52661;51.364;6.054;2022-07-04T06:31:04;101783.81;;;17.36;70.01
65880;BME280;52661;51.364;6.054;2022-07-04T06:33:30;101778.59;;;17.45;70.28
65880;BME280;52661;51.364;6.054;2022-07-04T06:35:55;101775.94;;;17.38;70.01
65880;BME280;52661;51.364;6.054;2022-07-04T06:38:30;101779.75;;;17.47;69.27
65880;BME280;52661;51.364;6.054;2022-07-04T06:40:59;101782.00;;;17.56;69.51
65880;BME280;52661;51.364;6.054;2022-07-04T06:43:25;101784.78;;;17.52;68.74
65880;BME280;52661;51.364;6.054;2022-07-04T06:45:51;101786.72;;;17.55;69.18
65880;BME280;52661;51.364;6.054;2022-07-04T06:48:16;101790.31;;;17.49;68.86
65880;BME280;52661;51.364;6.054;2022-07-04T06:50:42;101792.25;;;17.52;69.41
65880;BME280;52661;51.364;6.054;2022-07-04T06:53:09;101792.72;;;17.81;70.91
65880;BME280;52661;51.364;6.054;2022-07-04T06:55:36;101795.47;;;18.11;67.07
65880;BME280;52661;51.364;6.054;2022-07-04T06:58:02;101799.94;;;18.55;66.04
65880;BME280;52661;51.364;6.054;2022-07-04T07:00:28;101791.34;;;18.76;65.36
65880;BME280;52661;51.364;6.054;2022-07-04T07:02:56;101806.31;;;18.98;64.72
65880;BME280;52661;51.364;6.054;2022-07-04T07:05:23;101807.72;;;19.06;64.05
65880;BME280;52661;51.364;6.054;2022-07-04T07:07:48;101808.22;;;19.01;62.98
65880;BME280;52661;51.364;6.054;2022-07-04T07:10:14;101804.59;;;19.28;62.19
65880;BME280;52661;51.364;6.054;2022-07-04T07:12:39;101801.88;;;19.04;62.45
65880;BME280;52661;51.364;6.054;2022-07-04T07:15:04;101791.63;;;18.82;63.59
65880;BME280;52661;51.364;6.054;2022-07-04T07:17:30;101792.31;;;18.89;64.00
65880;BME280;52661;51.364;6.054;2022-07-04T07:19:55;101789.66;;;18.82;64.02
65880;BME280;52661;51.364;6.054;2022-07-04T07:22:21;101791.66;;;19.05;63.58
65880;BME280;52661;51.364;6.054;2022-07-04T07:24:46;101793.34;;;18.99;63.75
65880;BME280;52661;51.364;6.054;2022-07-04T07:27:11;101785.56;;;18.94;62.59
65880;BME280;52661;51.364;6.054;2022-07-04T07:29:37;101786.34;;;18.94;62.41
65880;BME280;52661;51.364;6.054;2022-07-04T07:32:04;101788.09;;;19.04;61.85
65880;BME280;52661;51.364;6.054;2022-07-04T07:34:29;101789.16;;;19.10;61.96
65880;BME280;52661;51.364;6.054;2022-07-04T07:36:55;101781.28;;;19.12;61.89
65880;BME280;52661;51.364;6.054;2022-07-04T07:39:20;101785.94;;;19.15;61.63
65880;BME280;52661;51.364;6.054;2022-07-04T07:41:46;101784.72;;;18.97;61.81
65880;BME280;52661;51.364;6.054;2022-07-04T07:44:12;101783.22;;;18.92;62.35
65880;BME280;52661;51.364;6.054;2022-07-04T07:46:37;101784.59;;;18.81;61.92
65880;BME280;52661;51.364;6.054;2022-07-04T07:49:03;101787.06;;;18.98;62.28
65880;BME280;52661;51.364;6.054;2022-07-04T07:51:29;101780.69;;;19.01;62.25
65880;BME280;52661;51.364;6.054;2022-07-04T07:53:54;101778.16;;;19.10;62.26
65880;BME280;52661;51.364;6.054;2022-07-04T07:56:20;101776.69;;;19.06;61.30
65880;BME280;52661;51.364;6.054;2022-07-04T07:58:45;101786.72;;;19.16;61.61
65880;BME280;52661;51.364;6.054;2022-07-04T08:01:10;101788.09;;;19.28;60.45
65880;BME280;52661;51.364;6.054;2022-07-04T08:03:36;101781.16;;;19.20;59.46
65880;BME280;52661;51.364;6.054;2022-07-04T08:06:20;101783.34;;;19.28;60.63
65880;BME280;52661;51.364;6.054;2022-07-04T08:08:45;101780.31;;;19.23;59.72
65880;BME280;52661;51.364;6.054;2022-07-04T08:11:11;101777.75;;;19.32;60.20
65880;BME280;52661;51.364;6.054;2022-07-04T08:13:38;101782.28;;;19.45;59.87
65880;BME280;52661;51.364;6.054;2022-07-04T08:16:04;101781.13;;;19.43;59.56
65880;BME280;52661;51.364;6.054;2022-07-04T08:18:30;101768.94;;;19.40;60.80
65880;BME280;52661;51.364;6.054;2022-07-04T08:20:55;101774.19;;;19.54;61.29
65880;BME280;52661;51.364;6.054;2022-07-04T08:23:21;101774.72;;;19.49;61.06
65880;BME280;52661;51.364;6.054;2022-07-04T08:25:46;101768.22;;;19.59;60.55
65880;BME280;52661;51.364;6.054;2022-07-04T08:28:12;101772.47;;;19.64;59.76
65880;BME280;52661;51.364;6.054;2022-07-04T08:30:37;101767.78;;;19.61;58.86
65880;BME280;52661;51.364;6.054;2022-07-04T08:33:03;101760.91;;;19.69;58.96
65880;BME280;52661;51.364;6.054;2022-07-04T08:35:28;101770.31;;;19.72;58.63
65880;BME280;52661;51.364;6.054;2022-07-04T08:37:53;101770.50;;;19.81;58.98
65880;BME280;52661;51.364;6.054;2022-07-04T08:40:26;101769.50;;;19.91;56.69
65880;BME280;52661;51.364;6.054;2022-07-04T08:42:52;101773.50;;;20.06;57.60
65880;BME280;52661;51.364;6.054;2022-07-04T08:45:26;101762.97;;;20.01;57.55
65880;BME280;52661;51.364;6.054;2022-07-04T08:47:55;101774.78;;;20.01;57.38
65880;BME280;52661;51.364;6.054;2022-07-04T08:50:32;101770.41;;;20.04;57.23
65880;BME280;52661;51.364;6.054;2022-07-04T08:53:02;101761.53;;;20.12;58.03
65880;BME280;52661;51.364;6.054;2022-07-04T08:55:28;101769.00;;;20.32;56.74
65880;BME280;52661;51.364;6.054;2022-07-04T08:58:13;101764.81;;;20.43;55.26
65880;BME280;52661;51.364;6.054;2022-07-04T09:00:52;101771.31;;;20.33;55.01
65880;BME280;52661;51.364;6.054;2022-07-04T09:03:18;101773.31;;;20.33;54.81
65880;BME280;52661;51.364;6.054;2022-07-04T09:05:44;101776.84;;;20.33;55.77
65880;BME280;52661;51.364;6.054;2022-07-04T09:08:10;101772.78;;;20.38;54.59
65880;BME280;52661;51.364;6.054;2022-07-04T09:10:35;101769.38;;;20.50;54.12
65880;BME280;52661;51.364;6.054;2022-07-04T09:13:03;101776.25;;;20.58;54.37
65880;BME280;52661;51.364;6.054;2022-07-04T09:15:29;101777.78;;;20.59;54.39
65880;BME280;52661;51.364;6.054;2022-07-04T09:17:55;101781.06;;;20.70;53.19
65880;BME280;52661;51.364;6.054;2022-07-04T09:20:22;101782.53;;;20.75;50.59
65880;BME280;52661;51.364;6.054;2022-07-04T09:22:49;101781.75;;;20.74;51.39
65880;BME280;52661;51.364;6.054;2022-07-04T09:25:15;101784.09;;;20.76;51.86
65880;BME280;52661;51.364;6.054;2022-07-04T09:27:44;101780.63;;;20.88;52.68
65880;BME280;52661;51.364;6.054;2022-07-04T09:30:11;101781.22;;;20.95;51.51
65880;BME280;52661;51.364;6.054;2022-07-04T09:35:04;101780.50;;;21.07;49.97
65880;BME280;52661;51.364;6.054;2022-07-04T09:37:38;101779.41;;;21.05;50.47
65880;BME280;52661;51.364;6.054;2022-07-04T09:40:07;101784.56;;;21.19;51.87
65880;BME280;52661;51.364;6.054;2022-07-04T09:42:41;101786.56;;;21.19;51.08
65880;BME280;52661;51.364;6.054;2022-07-04T09:45:10;101785.47;;;21.29;49.15
65880;BME280;52661;51.364;6.054;2022-07-04T09:47:37;101787.03;;;21.30;50.24
65880;BME280;52661;51.364;6.054;2022-07-04T09:50:29;101782.44;;;21.39;50.22
65880;BME280;52661;51.364;6.054;2022-07-04T09:55:22;101773.72;;;21.41;50.63
65880;BME280;52661;51.364;6.054;2022-07-04T09:57:48;101776.28;;;21.60;49.59
65880;BME280;52661;51.364;6.054;2022-07-04T10:00:31;101777.16;;;21.57;46.58
65880;BME280;52661;51.364;6.054;2022-07-04T10:03:15;101779.59;;;21.55;48.89
65880;BME280;52661;51.364;6.054;2022-07-04T10:05:40;101775.88;;;21.62;49.17
65880;BME280;52661;51.364;6.054;2022-07-04T10:08:06;101781.97;;;21.70;48.14
65880;BME280;52661;51.364;6.054;2022-07-04T10:10:33;101770.97;;;21.53;48.58
65880;BME280;52661;51.364;6.054;2022-07-04T10:13:10;101769.78;;;21.26;49.28
65880;BME280;52661;51.364;6.054;2022-07-04T10:15:41;101772.84;;;21.44;49.98
65880;BME280;52661;51.364;6.054;2022-07-04T10:18:07;101768.56;;;21.55;49.79
65880;BME280;52661;51.364;6.054;2022-07-04T10:20:33;101772.69;;;21.76;50.50
65880;BME280;52661;51.364;6.054;2022-07-04T10:23:00;101760.84;;;21.63;49.32
65880;BME280;52661;51.364;6.054;2022-07-04T10:25:25;101770.03;;;21.73;48.43
65880;BME280;52661;51.364;6.054;2022-07-04T10:27:51;101765.09;;;21.93;48.93
65880;BME280;52661;51.364;6.054;2022-07-04T10:30:22;101765.19;;;21.89;48.39
65880;BME280;52661;51.364;6.054;2022-07-04T10:32:48;101761.91;;;22.07;48.58
65880;BME280;52661;51.364;6.054;2022-07-04T10:35:15;101765.09;;;22.18;49.03
65880;BME280;52661;51.364;6.054;2022-07-04T10:38:06;101753.94;;;22.34;47.99
65880;BME280;52661;51.364;6.054;2022-07-04T10:40:45;101750.16;;;22.41;47.44
65880;BME280;52661;51.364;6.054;2022-07-04T10:48:50;101751.19;;;22.09;49.45
65880;BME280;52661;51.364;6.054;2022-07-04T10:51:44;101741.31;;;22.33;49.47
65880;BME280;52661;51.364;6.054;2022-07-04T10:56:55;101733.78;;;21.83;47.62
65880;BME280;52661;51.364;6.054;2022-07-04T10:59:25;101734.81;;;22.02;48.65
65880;BME280;52661;51.364;6.054;2022-07-04T11:04:47;101732.41;;;22.64;46.24
65880;BME280;52661;51.364;6.054;2022-07-04T11:07:15;101734.72;;;22.65;44.74
65880;BME280;52661;51.364;6.054;2022-07-04T11:09:40;101734.75;;;22.99;45.13
65880;BME280;52661;51.364;6.054;2022-07-04T11:12:08;101726.63;;;23.05;43.93
65880;BME280;52661;51.364;6.054;2022-07-04T11:14:37;101721.94;;;23.15;44.23
65880;BME280;52661;51.364;6.054;2022-07-04T11:17:05;101726.97;;;23.29;43.84
65880;BME280;52661;51.364;6.054;2022-07-04T11:19:31;101718.84;;;23.34;44.47
65880;BME280;52661;51.364;6.054;2022-07-04T11:21:58;101723.31;;;23.53;44.39
65880;BME280;52661;51.364;6.054;2022-07-04T11:24:24;101709.88;;;23.09;42.40
65880;BME280;52661;51.364;6.054;2022-07-04T11:26:50;101705.38;;;23.02;43.98
65880;BME280;52661;51.364;6.054;2022-07-04T11:29:16;101702.81;;;23.29;44.47
65880;BME280;52661;51.364;6.054;2022-07-04T11:31:47;101711.31;;;23.35;43.41
65880;BME280;52661;51.364;6.054;2022-07-04T11:34:13;101690.56;;;23.39;44.48
65880;BME280;52661;51.364;6.054;2022-07-04T11:36:40;101696.22;;;23.58;43.53
65880;BME280;52661;51.364;6.054;2022-07-04T11:39:11;101710.13;;;23.67;43.66
65880;BME280;52661;51.364;6.054;2022-07-04T11:41:49;101704.59;;;23.45;42.80
65880;BME280;52661;51.364;6.054;2022-07-04T11:44:35;101697.13;;;23.55;43.90
65880;BME280;52661;51.364;6.054;2022-07-04T11:47:22;101698.94;;;23.48;42.50
65880;BME280;52661;51.364;6.054;2022-07-04T11:49:58;101688.69;;;23.36;43.41
65880;BME280;52661;51.364;6.054;2022-07-04T11:52:29;101696.16;;;23.27;44.88
65880;BME280;52661;51.364;6.054;2022-07-04T11:54:55;101697.09;;;23.76;45.32
65880;BME280;52661;51.364;6.054;2022-07-04T11:57:26;101690.13;;;23.72;41.59
65880;BME280;52661;51.364;6.054;2022-07-04T11:59:54;101698.81;;;23.92;44.46
65880;BME280;52661;51.364;6.054;2022-07-04T12:02:20;101707.44;;;24.25;41.56
65880;BME280;52661;51.364;6.054;2022-07-04T12:04:46;101699.09;;;23.76;41.69
65880;BME280;52661;51.364;6.054;2022-07-04T12:07:16;101698.41;;;23.41;40.99
65880;BME280;52661;51.364;6.054;2022-07-04T12:09:43;101707.19;;;22.96;42.84
65880;BME280;52661;51.364;6.054;2022-07-04T12:12:10;101694.03;;;22.87;43.91
65880;BME280;52661;51.364;6.054;2022-07-04T12:14:35;101687.84;;;22.83;44.66
65880;BME280;52661;51.364;6.054;2022-07-04T12:17:19;101688.28;;;23.69;44.67
65880;BME280;52661;51.364;6.054;2022-07-04T12:19:56;101694.19;;;24.29;41.93
65880;BME280;52661;51.364;6.054;2022-07-04T12:25:06;101685.72;;;24.50;42.60
65880;BME280;52661;51.364;6.054;2022-07-04T12:27:32;101686.84;;;24.62;41.56
65880;BME280;52661;51.364;6.054;2022-07-04T12:29:58;101683.88;;;24.57;41.15
65880;BME280;52661;51.364;6.054;2022-07-04T12:32:43;101693.59;;;24.61;40.47
65880;BME280;52661;51.364;6.054;2022-07-04T12:35:09;101683.91;;;24.66;39.78
65880;BME280;52661;51.364;6.054;2022-07-04T12:37:34;101680.22;;;24.01;40.59
65880;BME280;52661;51.364;6.054;2022-07-04T12:40:07;101678.25;;;23.62;40.79
65880;BME280;52661;51.364;6.054;2022-07-04T12:42:32;101686.22;;;23.91;41.37
65880;BME280;52661;51.364;6.054;2022-07-04T12:45:05;101677.47;;;24.01;40.99
65880;BME280;52661;51.364;6.054;2022-07-04T12:47:31;101669.44;;;24.03;43.49
65880;BME280;52661;51.364;6.054;2022-07-04T12:49:56;101674.06;;;24.07;42.17
65880;BME280;52661;51.364;6.054;2022-07-04T12:52:26;101672.28;;;23.82;42.85
65880;BME280;52661;51.364;6.054;2022-07-04T12:55:06;101664.81;;;23.61;42.92
65880;BME280;52661;51.364;6.054;2022-07-04T12:57:32;101666.91;;;23.78;42.86
65880;BME280;52661;51.364;6.054;2022-07-04T12:59:57;101672.81;;;23.98;42.51
65880;BME280;52661;51.364;6.054;2022-07-04T13:02:23;101670.47;;;24.55;41.50
65880;BME280;52661;51.364;6.054;2022-07-04T13:04:48;101665.69;;;24.83;39.85
65880;BME280;52661;51.364;6.054;2022-07-04T13:07:15;101665.84;;;25.07;39.72
65880;BME280;52661;51.364;6.054;2022-07-04T13:09:42;101663.13;;;25.39;38.87